Calverton Park, Missouri
Current Conditions -  °F | °C
As of 11:51 AM on Thursday 23 Oct 2014 (Local Time) from KSTL Reporting Station
Broken Clouds Broken Clouds  
Wind Chill: 60°   Ceiling: 14000
Heat Index: 60°   Visibility: 10mi
Dew Point: 43°   Wind: 5mph
Humidity: 53%   Direction: 180°S
Pressure: 30.2"   Gusts: NA
Location:  38.7497°N, 90.2989°W
Report Text: KSTL 231651Z 18004KT 10SM BKN140 BKN200 16/06 A3020 RMK AO2 SLP226 T01560061
Loading
Personal Weather Stations






























Interactive Weather Map
Tropical Storm Tracking
New forecast layout! Learn more

10-Day Weather Forecast

Advertisements
Track Severe Weather on mobile